sensor_id;sensor_type;location;lat;lon;timestamp;P1;durP1;ratioP1;P2;durP2;ratioP2
7432;SDS011;32233;49.500;7.764;2023-05-14T00:00:45;8.23;;;7.03;;
7432;SDS011;32233;49.500;7.764;2023-05-14T00:03:13;8.37;;;7.50;;
7432;SDS011;32233;49.500;7.764;2023-05-14T00:05:39;8.00;;;7.30;;
7432;SDS011;32233;49.500;7.764;2023-05-14T00:08:06;8.37;;;7.57;;
7432;SDS011;32233;49.500;7.764;2023-05-14T00:10:33;9.73;;;8.13;;
7432;SDS011;32233;49.500;7.764;2023-05-14T00:12:59;8.10;;;7.40;;
7432;SDS011;32233;49.500;7.764;2023-05-14T00:15:26;12.07;;;8.40;;
7432;SDS011;32233;49.500;7.764;2023-05-14T00:17:52;10.33;;;8.67;;
7432;SDS011;32233;49.500;7.764;2023-05-14T00:20:19;9.80;;;8.50;;
7432;SDS011;32233;49.500;7.764;2023-05-14T00:22:45;10.50;;;9.00;;
7432;SDS011;32233;49.500;7.764;2023-05-14T00:25:12;9.43;;;8.43;;
7432;SDS011;32233;49.500;7.764;2023-05-14T00:27:38;8.70;;;7.90;;
7432;SDS011;32233;49.500;7.764;2023-05-14T00:30:06;10.70;;;8.20;;
7432;SDS011;32233;49.500;7.764;2023-05-14T00:32:32;9.33;;;8.17;;
7432;SDS011;32233;49.500;7.764;2023-05-14T00:34:59;8.60;;;7.57;;
7432;SDS011;32233;49.500;7.764;2023-05-14T00:37:28;8.73;;;7.93;;
7432;SDS011;32233;49.500;7.764;2023-05-14T00:39:54;8.70;;;7.87;;
7432;SDS011;32233;49.500;7.764;2023-05-14T00:42:21;8.20;;;7.30;;
7432;SDS011;32233;49.500;7.764;2023-05-14T00:44:47;9.33;;;7.93;;
7432;SDS011;32233;49.500;7.764;2023-05-14T00:47:14;8.67;;;7.73;;
7432;SDS011;32233;49.500;7.764;2023-05-14T00:49:41;8.93;;;8.10;;
7432;SDS011;32233;49.500;7.764;2023-05-14T00:52:08;9.23;;;7.77;;
7432;SDS011;32233;49.500;7.764;2023-05-14T00:54:36;8.73;;;7.93;;
7432;SDS011;32233;49.500;7.764;2023-05-14T00:57:03;8.87;;;7.93;;
7432;SDS011;32233;49.500;7.764;2023-05-14T00:59:31;10.37;;;8.30;;
7432;SDS011;32233;49.500;7.764;2023-05-14T01:01:58;10.90;;;8.27;;
7432;SDS011;32233;49.500;7.764;2023-05-14T01:04:24;10.63;;;8.23;;
7432;SDS011;32233;49.500;7.764;2023-05-14T01:07:11;10.27;;;7.70;;
7432;SDS011;32233;49.500;7.764;2023-05-14T01:10:02;8.27;;;7.43;;
7432;SDS011;32233;49.500;7.764;2023-05-14T01:15:09;9.17;;;7.63;;
7432;SDS011;32233;49.500;7.764;2023-05-14T01:17:42;9.60;;;8.60;;
7432;SDS011;32233;49.500;7.764;2023-05-14T01:20:13;8.77;;;7.97;;
7432;SDS011;32233;49.500;7.764;2023-05-14T01:22:40;10.80;;;8.53;;
7432;SDS011;32233;49.500;7.764;2023-05-14T01:25:07;10.17;;;7.83;;
7432;SDS011;32233;49.500;7.764;2023-05-14T01:27:55;9.67;;;7.80;;
7432;SDS011;32233;49.500;7.764;2023-05-14T01:30:32;9.37;;;8.20;;
7432;SDS011;32233;49.500;7.764;2023-05-14T01:33:02;9.00;;;7.43;;
7432;SDS011;32233;49.500;7.764;2023-05-14T01:35:35;8.67;;;7.87;;
7432;SDS011;32233;49.500;7.764;2023-05-14T01:38:03;8.23;;;7.53;;
7432;SDS011;32233;49.500;7.764;2023-05-14T01:40:32;8.10;;;7.27;;
7432;SDS011;32233;49.500;7.764;2023-05-14T01:43:01;9.93;;;7.50;;
7432;SDS011;32233;49.500;7.764;2023-05-14T01:45:29;8.23;;;7.43;;
7432;SDS011;32233;49.500;7.764;2023-05-14T01:47:56;8.40;;;7.47;;
7432;SDS011;32233;49.500;7.764;2023-05-14T01:50:23;8.73;;;7.83;;
7432;SDS011;32233;49.500;7.764;2023-05-14T01:52:50;8.93;;;7.40;;
7432;SDS011;32233;49.500;7.764;2023-05-14T01:55:19;8.37;;;7.17;;
7432;SDS011;32233;49.500;7.764;2023-05-14T01:57:46;8.27;;;7.47;;
7432;SDS011;32233;49.500;7.764;2023-05-14T02:00:12;7.87;;;7.17;;
7432;SDS011;32233;49.500;7.764;2023-05-14T02:02:39;7.70;;;7.00;;
7432;SDS011;32233;49.500;7.764;2023-05-14T02:05:07;7.77;;;7.07;;
7432;SDS011;32233;49.500;7.764;2023-05-14T02:07:35;9.13;;;7.23;;
7432;SDS011;32233;49.500;7.764;2023-05-14T02:10:02;10.37;;;7.60;;
7432;SDS011;32233;49.500;7.764;2023-05-14T02:12:28;8.43;;;7.63;;
7432;SDS011;32233;49.500;7.764;2023-05-14T02:14:55;7.97;;;7.13;;
7432;SDS011;32233;49.500;7.764;2023-05-14T02:17:22;8.47;;;7.50;;
7432;SDS011;32233;49.500;7.764;2023-05-14T02:19:49;8.93;;;8.03;;
7432;SDS011;32233;49.500;7.764;2023-05-14T02:22:16;11.70;;;8.47;;
7432;SDS011;32233;49.500;7.764;2023-05-14T02:24:43;9.10;;;7.97;;
7432;SDS011;32233;49.500;7.764;2023-05-14T02:27:09;9.40;;;8.50;;
7432;SDS011;32233;49.500;7.764;2023-05-14T02:29:38;8.63;;;7.67;;
7432;SDS011;32233;49.500;7.764;2023-05-14T02:32:04;9.50;;;8.43;;
7432;SDS011;32233;49.500;7.764;2023-05-14T02:34:31;9.37;;;7.43;;
7432;SDS011;32233;49.500;7.764;2023-05-14T02:36:59;9.70;;;6.87;;
7432;SDS011;32233;49.500;7.764;2023-05-14T02:39:26;7.23;;;6.53;;
7432;SDS011;32233;49.500;7.764;2023-05-14T02:41:52;8.73;;;7.57;;
7432;SDS011;32233;49.500;7.764;2023-05-14T02:44:19;7.60;;;6.90;;
7432;SDS011;32233;49.500;7.764;2023-05-14T02:46:46;7.97;;;7.07;;
7432;SDS011;32233;49.500;7.764;2023-05-14T02:49:13;7.77;;;6.93;;
7432;SDS011;32233;49.500;7.764;2023-05-14T02:51:39;7.80;;;7.00;;
7432;SDS011;32233;49.500;7.764;2023-05-14T02:54:06;7.80;;;7.10;;
7432;SDS011;32233;49.500;7.764;2023-05-14T02:56:32;11.00;;;6.73;;
7432;SDS011;32233;49.500;7.764;2023-05-14T02:58:59;7.87;;;7.10;;
7432;SDS011;32233;49.500;7.764;2023-05-14T03:01:26;7.50;;;6.80;;
7432;SDS011;32233;49.500;7.764;2023-05-14T03:03:53;7.70;;;6.77;;
7432;SDS011;32233;49.500;7.764;2023-05-14T03:06:19;8.70;;;7.27;;
7432;SDS011;32233;49.500;7.764;2023-05-14T03:08:46;8.07;;;6.93;;
7432;SDS011;32233;49.500;7.764;2023-05-14T03:11:12;7.87;;;7.17;;
7432;SDS011;32233;49.500;7.764;2023-05-14T03:13:39;8.60;;;6.63;;
7432;SDS011;32233;49.500;7.764;2023-05-14T03:16:05;7.43;;;6.30;;
7432;SDS011;32233;49.500;7.764;2023-05-14T03:18:32;8.53;;;7.50;;
7432;SDS011;32233;49.500;7.764;2023-05-14T03:21:01;8.77;;;7.37;;
7432;SDS011;32233;49.500;7.764;2023-05-14T03:23:29;7.93;;;7.03;;
7432;SDS011;32233;49.500;7.764;2023-05-14T03:25:57;7.50;;;6.80;;
7432;SDS011;32233;49.500;7.764;2023-05-14T03:28:23;7.13;;;6.53;;
7432;SDS011;32233;49.500;7.764;2023-05-14T03:30:51;8.57;;;7.43;;
7432;SDS011;32233;49.500;7.764;2023-05-14T03:33:18;8.37;;;6.87;;
7432;SDS011;32233;49.500;7.764;2023-05-14T03:35:44;7.50;;;6.70;;
7432;SDS011;32233;49.500;7.764;2023-05-14T03:38:11;8.23;;;6.63;;
7432;SDS011;32233;49.500;7.764;2023-05-14T03:40:37;8.53;;;6.50;;
7432;SDS011;32233;49.500;7.764;2023-05-14T03:43:04;7.03;;;6.20;;
7432;SDS011;32233;49.500;7.764;2023-05-14T03:45:31;7.57;;;6.87;;
7432;SDS011;32233;49.500;7.764;2023-05-14T03:47:58;7.10;;;6.47;;
7432;SDS011;32233;49.500;7.764;2023-05-14T03:50:25;7.13;;;6.43;;
7432;SDS011;32233;49.500;7.764;2023-05-14T03:52:52;7.13;;;6.43;;
7432;SDS011;32233;49.500;7.764;2023-05-14T03:55:18;7.17;;;6.47;;
7432;SDS011;32233;49.500;7.764;2023-05-14T03:57:46;8.03;;;7.23;;
7432;SDS011;32233;49.500;7.764;2023-05-14T04:00:13;10.10;;;8.57;;
7432;SDS011;32233;49.500;7.764;2023-05-14T04:02:43;8.17;;;7.20;;
7432;SDS011;32233;49.500;7.764;2023-05-14T04:05:10;7.23;;;6.53;;
7432;SDS011;32233;49.500;7.764;2023-05-14T04:07:36;7.27;;;6.43;;
7432;SDS011;32233;49.500;7.764;2023-05-14T04:10:03;7.80;;;6.93;;
7432;SDS011;32233;49.500;7.764;2023-05-14T04:12:32;7.10;;;6.50;;
7432;SDS011;32233;49.500;7.764;2023-05-14T04:14:59;8.13;;;7.30;;
7432;SDS011;32233;49.500;7.764;2023-05-14T04:17:26;7.60;;;6.43;;
7432;SDS011;32233;49.500;7.764;2023-05-14T04:19:53;8.60;;;7.80;;
7432;SDS011;32233;49.500;7.764;2023-05-14T04:22:19;7.90;;;7.10;;
7432;SDS011;32233;49.500;7.764;2023-05-14T04:24:46;8.27;;;7.13;;
7432;SDS011;32233;49.500;7.764;2023-05-14T04:27:19;9.33;;;7.87;;
7432;SDS011;32233;49.500;7.764;2023-05-14T04:29:47;7.97;;;7.27;;
7432;SDS011;32233;49.500;7.764;2023-05-14T04:32:14;9.87;;;7.67;;
7432;SDS011;32233;49.500;7.764;2023-05-14T04:34:41;7.63;;;6.93;;
7432;SDS011;32233;49.500;7.764;2023-05-14T04:37:08;10.10;;;7.10;;
7432;SDS011;32233;49.500;7.764;2023-05-14T04:39:35;7.23;;;6.63;;
7432;SDS011;32233;49.500;7.764;2023-05-14T04:42:01;8.00;;;7.20;;
7432;SDS011;32233;49.500;7.764;2023-05-14T04:44:28;7.20;;;6.60;;
7432;SDS011;32233;49.500;7.764;2023-05-14T04:46:54;7.77;;;7.00;;
7432;SDS011;32233;49.500;7.764;2023-05-14T04:49:21;9.70;;;6.73;;
7432;SDS011;32233;49.500;7.764;2023-05-14T04:51:47;7.20;;;6.50;;
7432;SDS011;32233;49.500;7.764;2023-05-14T04:54:14;7.40;;;6.70;;
7432;SDS011;32233;49.500;7.764;2023-05-14T04:56:41;7.60;;;6.07;;
7432;SDS011;32233;49.500;7.764;2023-05-14T04:59:07;7.30;;;6.60;;
7432;SDS011;32233;49.500;7.764;2023-05-14T05:01:33;7.93;;;6.47;;
7432;SDS011;32233;49.500;7.764;2023-05-14T05:04:00;7.40;;;6.53;;
7432;SDS011;32233;49.500;7.764;2023-05-14T05:06:27;7.13;;;6.43;;
7432;SDS011;32233;49.500;7.764;2023-05-14T05:08:54;7.87;;;6.77;;
7432;SDS011;32233;49.500;7.764;2023-05-14T05:11:21;7.03;;;6.43;;
7432;SDS011;32233;49.500;7.764;2023-05-14T05:13:47;7.60;;;6.80;;
7432;SDS011;32233;49.500;7.764;2023-05-14T05:16:14;7.67;;;6.83;;
7432;SDS011;32233;49.500;7.764;2023-05-14T05:18:40;7.70;;;6.90;;
7432;SDS011;32233;49.500;7.764;2023-05-14T05:21:07;7.57;;;6.87;;
7432;SDS011;32233;49.500;7.764;2023-05-14T05:23:33;6.87;;;6.20;;
7432;SDS011;32233;49.500;7.764;2023-05-14T05:26:00;9.30;;;7.57;;
7432;SDS011;32233;49.500;7.764;2023-05-14T05:28:26;7.83;;;7.03;;
7432;SDS011;32233;49.500;7.764;2023-05-14T05:30:53;7.13;;;6.53;;
7432;SDS011;32233;49.500;7.764;2023-05-14T05:33:23;7.17;;;5.60;;
7432;SDS011;32233;49.500;7.764;2023-05-14T05:35:49;6.13;;;5.67;;
7432;SDS011;32233;49.500;7.764;2023-05-14T05:38:17;5.67;;;5.07;;
7432;SDS011;32233;49.500;7.764;2023-05-14T05:40:44;5.60;;;5.20;;
7432;SDS011;32233;49.500;7.764;2023-05-14T05:43:10;6.30;;;5.80;;
7432;SDS011;32233;49.500;7.764;2023-05-14T05:45:39;6.47;;;5.47;;
7432;SDS011;32233;49.500;7.764;2023-05-14T05:48:05;5.57;;;5.10;;
7432;SDS011;32233;49.500;7.764;2023-05-14T05:50:32;6.03;;;5.53;;
7432;SDS011;32233;49.500;7.764;2023-05-14T05:52:59;6.80;;;5.40;;
7432;SDS011;32233;49.500;7.764;2023-05-14T05:55:25;6.40;;;5.80;;
7432;SDS011;32233;49.500;7.764;2023-05-14T05:57:52;6.33;;;5.83;;
7432;SDS011;32233;49.500;7.764;2023-05-14T06:00:18;10.77;;;6.57;;
7432;SDS011;32233;49.500;7.764;2023-05-14T06:02:45;7.53;;;6.77;;
7432;SDS011;32233;49.500;7.764;2023-05-14T06:05:12;7.77;;;7.17;;
7432;SDS011;32233;49.500;7.764;2023-05-14T06:07:38;6.20;;;5.70;;
7432;SDS011;32233;49.500;7.764;2023-05-14T06:10:05;5.90;;;5.40;;
7432;SDS011;32233;49.500;7.764;2023-05-14T06:12:32;6.23;;;5.73;;
7432;SDS011;32233;49.500;7.764;2023-05-14T06:14:59;6.13;;;5.70;;
7432;SDS011;32233;49.500;7.764;2023-05-14T06:17:25;6.20;;;5.70;;
7432;SDS011;32233;49.500;7.764;2023-05-14T06:19:52;6.57;;;6.03;;
7432;SDS011;32233;49.500;7.764;2023-05-14T06:22:18;6.30;;;5.90;;
7432;SDS011;32233;49.500;7.764;2023-05-14T06:24:46;6.37;;;5.87;;
7432;SDS011;32233;49.500;7.764;2023-05-14T06:27:13;6.50;;;5.90;;
7432;SDS011;32233;49.500;7.764;2023-05-14T06:29:40;6.23;;;5.73;;
7432;SDS011;32233;49.500;7.764;2023-05-14T06:32:06;6.00;;;5.47;;
7432;SDS011;32233;49.500;7.764;2023-05-14T06:34:33;7.70;;;5.93;;
7432;SDS011;32233;49.500;7.764;2023-05-14T06:37:02;6.30;;;5.80;;
7432;SDS011;32233;49.500;7.764;2023-05-14T06:39:29;6.57;;;6.03;;
7432;SDS011;32233;49.500;7.764;2023-05-14T06:41:58;6.53;;;5.93;;
7432;SDS011;32233;49.500;7.764;2023-05-14T06:44:24;6.63;;;6.03;;
7432;SDS011;32233;49.500;7.764;2023-05-14T06:46:53;6.07;;;5.47;;
7432;SDS011;32233;49.500;7.764;2023-05-14T06:53:04;5.50;;;5.10;;
7432;SDS011;32233;49.500;7.764;2023-05-14T06:55:36;5.67;;;5.27;;
7432;SDS011;32233;49.500;7.764;2023-05-14T06:58:09;7.47;;;5.50;;
7432;SDS011;32233;49.500;7.764;2023-05-14T07:00:36;5.03;;;4.70;;
7432;SDS011;32233;49.500;7.764;2023-05-14T07:03:02;5.20;;;4.87;;
7432;SDS011;32233;49.500;7.764;2023-05-14T07:05:29;5.53;;;5.13;;
7432;SDS011;32233;49.500;7.764;2023-05-14T07:07:56;5.83;;;5.33;;
7432;SDS011;32233;49.500;7.764;2023-05-14T07:10:22;6.40;;;5.80;;
7432;SDS011;32233;49.500;7.764;2023-05-14T07:12:50;5.80;;;5.30;;
7432;SDS011;32233;49.500;7.764;2023-05-14T07:15:16;6.60;;;5.70;;
7432;SDS011;32233;49.500;7.764;2023-05-14T07:17:43;5.90;;;5.30;;
7432;SDS011;32233;49.500;7.764;2023-05-14T07:20:10;4.90;;;4.50;;
7432;SDS011;32233;49.500;7.764;2023-05-14T07:22:37;5.00;;;4.70;;
7432;SDS011;32233;49.500;7.764;2023-05-14T07:25:03;4.60;;;4.20;;
7432;SDS011;32233;49.500;7.764;2023-05-14T07:27:30;5.10;;;4.70;;
7432;SDS011;32233;49.500;7.764;2023-05-14T07:29:56;4.43;;;4.13;;
7432;SDS011;32233;49.500;7.764;2023-05-14T07:32:23;4.60;;;4.20;;
7432;SDS011;32233;49.500;7.764;2023-05-14T07:34:50;3.93;;;3.73;;
7432;SDS011;32233;49.500;7.764;2023-05-14T07:37:17;4.23;;;3.93;;
7432;SDS011;32233;49.500;7.764;2023-05-14T07:39:44;4.30;;;4.00;;
7432;SDS011;32233;49.500;7.764;2023-05-14T07:42:10;4.53;;;4.13;;
7432;SDS011;32233;49.500;7.764;2023-05-14T07:44:50;4.40;;;4.10;;
7432;SDS011;32233;49.500;7.764;2023-05-14T07:47:17;3.70;;;3.50;;
7432;SDS011;32233;49.500;7.764;2023-05-14T07:49:43;3.73;;;3.43;;
7432;SDS011;32233;49.500;7.764;2023-05-14T07:52:10;3.63;;;3.33;;
7432;SDS011;32233;49.500;7.764;2023-05-14T07:54:36;4.47;;;4.07;;
7432;SDS011;32233;49.500;7.764;2023-05-14T07:57:03;4.40;;;4.03;;
7432;SDS011;32233;49.500;7.764;2023-05-14T07:59:30;4.13;;;3.93;;
7432;SDS011;32233;49.500;7.764;2023-05-14T08:01:57;4.20;;;3.90;;
7432;SDS011;32233;49.500;7.764;2023-05-14T08:04:23;4.23;;;3.83;;
7432;SDS011;32233;49.500;7.764;2023-05-14T08:06:50;3.93;;;3.53;;
7432;SDS011;32233;49.500;7.764;2023-05-14T08:09:17;3.70;;;3.40;;
7432;SDS011;32233;49.500;7.764;2023-05-14T08:11:43;3.67;;;3.37;;
7432;SDS011;32233;49.500;7.764;2023-05-14T08:14:10;3.40;;;3.10;;
7432;SDS011;32233;49.500;7.764;2023-05-14T08:16:36;3.60;;;3.30;;
7432;SDS011;32233;49.500;7.764;2023-05-14T08:19:04;3.70;;;3.50;;
7432;SDS011;32233;49.500;7.764;2023-05-14T08:21:30;3.40;;;3.20;;
7432;SDS011;32233;49.500;7.764;2023-05-14T08:23:57;4.10;;;3.73;;
7432;SDS011;32233;49.500;7.764;2023-05-14T08:26:24;4.57;;;3.50;;
7432;SDS011;32233;49.500;7.764;2023-05-14T08:28:51;3.63;;;3.27;;
7432;SDS011;32233;49.500;7.764;2023-05-14T08:31:19;4.37;;;3.97;;
7432;SDS011;32233;49.500;7.764;2023-05-14T08:33:49;4.67;;;4.27;;
7432;SDS011;32233;49.500;7.764;2023-05-14T08:36:15;3.90;;;3.63;;
7432;SDS011;32233;49.500;7.764;2023-05-14T08:38:42;3.23;;;2.93;;
7432;SDS011;32233;49.500;7.764;2023-05-14T08:41:10;3.87;;;3.57;;
7432;SDS011;32233;49.500;7.764;2023-05-14T08:43:53;4.53;;;4.13;;
7432;SDS011;32233;49.500;7.764;2023-05-14T08:46:29;2.90;;;2.80;;
7432;SDS011;32233;49.500;7.764;2023-05-14T08:48:59;4.50;;;4.13;;
7432;SDS011;32233;49.500;7.764;2023-05-14T08:51:36;4.07;;;3.67;;
7432;SDS011;32233;49.500;7.764;2023-05-14T08:54:03;3.87;;;3.63;;
7432;SDS011;32233;49.500;7.764;2023-05-14T08:56:33;4.53;;;4.10;;
7432;SDS011;32233;49.500;7.764;2023-05-14T08:59:01;4.83;;;4.43;;
7432;SDS011;32233;49.500;7.764;2023-05-14T09:01:27;6.33;;;4.77;;
7432;SDS011;32233;49.500;7.764;2023-05-14T09:03:55;4.50;;;4.10;;
7432;SDS011;32233;49.500;7.764;2023-05-14T09:06:21;4.40;;;4.10;;
7432;SDS011;32233;49.500;7.764;2023-05-14T09:08:49;4.20;;;3.90;;
7432;SDS011;32233;49.500;7.764;2023-05-14T09:11:15;5.53;;;4.53;;
7432;SDS011;32233;49.500;7.764;2023-05-14T09:13:42;4.10;;;3.80;;
7432;SDS011;32233;49.500;7.764;2023-05-14T09:16:08;4.10;;;3.80;;
7432;SDS011;32233;49.500;7.764;2023-05-14T09:18:35;3.43;;;3.23;;
7432;SDS011;32233;49.500;7.764;2023-05-14T09:21:02;7.83;;;3.83;;
7432;SDS011;32233;49.500;7.764;2023-05-14T09:23:32;3.10;;;2.80;;
7432;SDS011;32233;49.500;7.764;2023-05-14T09:26:03;3.40;;;3.20;;
7432;SDS011;32233;49.500;7.764;2023-05-14T09:28:30;3.60;;;3.40;;
7432;SDS011;32233;49.500;7.764;2023-05-14T09:30:57;3.37;;;3.07;;
7432;SDS011;32233;49.500;7.764;2023-05-14T09:33:27;3.70;;;3.40;;
7432;SDS011;32233;49.500;7.764;2023-05-14T09:35:57;3.97;;;3.57;;
7432;SDS011;32233;49.500;7.764;2023-05-14T09:38:28;4.87;;;4.10;;
7432;SDS011;32233;49.500;7.764;2023-05-14T09:40:56;3.83;;;3.57;;
7432;SDS011;32233;49.500;7.764;2023-05-14T09:43:23;3.97;;;3.57;;
7432;SDS011;32233;49.500;7.764;2023-05-14T09:45:51;4.50;;;3.50;;
7432;SDS011;32233;49.500;7.764;2023-05-14T09:48:18;4.30;;;3.90;;
7432;SDS011;32233;49.500;7.764;2023-05-14T09:50:45;4.10;;;3.80;;
7432;SDS011;32233;49.500;7.764;2023-05-14T09:53:12;4.00;;;3.47;;
7432;SDS011;32233;49.500;7.764;2023-05-14T09:55:39;3.33;;;3.03;;
7432;SDS011;32233;49.500;7.764;2023-05-14T09:58:05;3.27;;;3.07;;
7432;SDS011;32233;49.500;7.764;2023-05-14T10:00:32;2.80;;;2.60;;
7432;SDS011;32233;49.500;7.764;2023-05-14T10:03:06;2.90;;;2.77;;
7432;SDS011;32233;49.500;7.764;2023-05-14T10:05:36;3.93;;;3.53;;
7432;SDS011;32233;49.500;7.764;2023-05-14T10:08:07;3.90;;;3.70;;
7432;SDS011;32233;49.500;7.764;2023-05-14T10:10:38;3.83;;;3.60;;
7432;SDS011;32233;49.500;7.764;2023-05-14T10:13:08;4.73;;;3.43;;
7432;SDS011;32233;49.500;7.764;2023-05-14T10:16:27;3.30;;;3.10;;
7432;SDS011;32233;49.500;7.764;2023-05-14T10:18:39;3.80;;;3.50;;
7432;SDS011;32233;49.500;7.764;2023-05-14T10:21:08;3.37;;;3.17;;
7432;SDS011;32233;49.500;7.764;2023-05-14T10:23:36;3.90;;;3.50;;
7432;SDS011;32233;49.500;7.764;2023-05-14T10:26:03;3.87;;;3.67;;
7432;SDS011;32233;49.500;7.764;2023-05-14T10:28:31;4.40;;;3.70;;
7432;SDS011;32233;49.500;7.764;2023-05-14T10:30:58;3.17;;;2.97;;
7432;SDS011;32233;49.500;7.764;2023-05-14T10:33:26;4.60;;;4.20;;
7432;SDS011;32233;49.500;7.764;2023-05-14T10:38:34;9.63;;;5.00;;
7432;SDS011;32233;49.500;7.764;2023-05-14T10:41:05;3.90;;;3.60;;
7432;SDS011;32233;49.500;7.764;2023-05-14T10:43:36;4.00;;;3.70;;
7432;SDS011;32233;49.500;7.764;2023-05-14T10:46:04;4.20;;;3.90;;
7432;SDS011;32233;49.500;7.764;2023-05-14T10:48:32;3.37;;;3.07;;
7432;SDS011;32233;49.500;7.764;2023-05-14T10:50:59;5.20;;;4.70;;
7432;SDS011;32233;49.500;7.764;2023-05-14T10:53:31;14.07;;;10.30;;
7432;SDS011;32233;49.500;7.764;2023-05-14T10:56:00;5.00;;;4.53;;
7432;SDS011;32233;49.500;7.764;2023-05-14T10:58:29;6.00;;;5.40;;
7432;SDS011;32233;49.500;7.764;2023-05-14T11:00:59;11.00;;;6.67;;
7432;SDS011;32233;49.500;7.764;2023-05-14T11:03:29;10.97;;;8.23;;
7432;SDS011;32233;49.500;7.764;2023-05-14T11:05:59;3.07;;;2.87;;
7432;SDS011;32233;49.500;7.764;2023-05-14T11:08:28;2.77;;;2.57;;
7432;SDS011;32233;49.500;7.764;2023-05-14T11:10:56;2.50;;;2.40;;
7432;SDS011;32233;49.500;7.764;2023-05-14T11:13:25;2.90;;;2.70;;
7432;SDS011;32233;49.500;7.764;2023-05-14T11:15:52;2.50;;;2.30;;
7432;SDS011;32233;49.500;7.764;2023-05-14T11:18:29;2.90;;;2.63;;
7432;SDS011;32233;49.500;7.764;2023-05-14T11:20:57;2.57;;;2.37;;
7432;SDS011;32233;49.500;7.764;2023-05-14T11:23:25;2.60;;;2.40;;
7432;SDS011;32233;49.500;7.764;2023-05-14T11:25:53;2.80;;;2.40;;
7432;SDS011;32233;49.500;7.764;2023-05-14T11:28:20;2.77;;;2.60;;
7432;SDS011;32233;49.500;7.764;2023-05-14T11:30:48;2.60;;;2.40;;
7432;SDS011;32233;49.500;7.764;2023-05-14T11:33:16;3.10;;;2.90;;
7432;SDS011;32233;49.500;7.764;2023-05-14T11:35:44;2.47;;;2.37;;
7432;SDS011;32233;49.500;7.764;2023-05-14T11:38:17;2.73;;;2.53;;
7432;SDS011;32233;49.500;7.764;2023-05-14T11:40:51;2.93;;;2.43;;
7432;SDS011;32233;49.500;7.764;2023-05-14T11:43:19;2.80;;;2.60;;
7432;SDS011;32233;49.500;7.764;2023-05-14T11:45:49;2.97;;;2.60;;
7432;SDS011;32233;49.500;7.764;2023-05-14T11:48:17;3.27;;;2.30;;
7432;SDS011;32233;49.500;7.764;2023-05-14T11:50:48;2.30;;;2.10;;
7432;SDS011;32233;49.500;7.764;2023-05-14T11:53:21;2.43;;;2.33;;
7432;SDS011;32233;49.500;7.764;2023-05-14T11:55:51;1.80;;;1.70;;
7432;SDS011;32233;49.500;7.764;2023-05-14T11:58:25;1.90;;;1.80;;
7432;SDS011;32233;49.500;7.764;2023-05-14T12:00:52;2.67;;;2.47;;
7432;SDS011;32233;49.500;7.764;2023-05-14T12:03:20;2.83;;;2.73;;
7432;SDS011;32233;49.500;7.764;2023-05-14T12:05:58;4.83;;;4.43;;
7432;SDS011;32233;49.500;7.764;2023-05-14T12:08:26;4.87;;;4.53;;
7432;SDS011;32233;49.500;7.764;2023-05-14T12:10:53;4.53;;;4.23;;
7432;SDS011;32233;49.500;7.764;2023-05-14T12:13:21;4.47;;;4.07;;
7432;SDS011;32233;49.500;7.764;2023-05-14T12:15:57;3.15;;;2.95;;
7432;SDS011;32233;49.500;7.764;2023-05-14T12:18:25;4.60;;;4.30;;
7432;SDS011;32233;49.500;7.764;2023-05-14T12:20:54;3.57;;;3.23;;
7432;SDS011;32233;49.500;7.764;2023-05-14T12:23:24;3.73;;;3.43;;
7432;SDS011;32233;49.500;7.764;2023-05-14T12:26:04;3.50;;;3.10;;
7432;SDS011;32233;49.500;7.764;2023-05-14T12:30:54;4.90;;;4.50;;
7432;SDS011;32233;49.500;7.764;2023-05-14T12:33:22;3.30;;;3.10;;
7432;SDS011;32233;49.500;7.764;2023-05-14T12:35:49;3.13;;;2.93;;
7432;SDS011;32233;49.500;7.764;2023-05-14T12:38:15;3.30;;;3.10;;
7432;SDS011;32233;49.500;7.764;2023-05-14T12:40:42;2.40;;;2.30;;
7432;SDS011;32233;49.500;7.764;2023-05-14T12:43:08;4.20;;;3.90;;
7432;SDS011;32233;49.500;7.764;2023-05-14T12:45:35;3.50;;;3.30;;
7432;SDS011;32233;49.500;7.764;2023-05-14T12:48:02;2.10;;;2.00;;
7432;SDS011;32233;49.500;7.764;2023-05-14T12:50:28;2.10;;;2.00;;
7432;SDS011;32233;49.500;7.764;2023-05-14T12:52:55;6.80;;;5.87;;
7432;SDS011;32233;49.500;7.764;2023-05-14T12:55:22;3.17;;;2.97;;
7432;SDS011;32233;49.500;7.764;2023-05-14T12:57:49;3.20;;;2.90;;
7432;SDS011;32233;49.500;7.764;2023-05-14T13:00:16;3.00;;;2.90;;
7432;SDS011;32233;49.500;7.764;2023-05-14T13:02:42;3.07;;;2.87;;
7432;SDS011;32233;49.500;7.764;2023-05-14T13:05:10;3.27;;;3.07;;
7432;SDS011;32233;49.500;7.764;2023-05-14T13:07:37;3.23;;;2.73;;
7432;SDS011;32233;49.500;7.764;2023-05-14T13:10:04;3.50;;;3.23;;
7432;SDS011;32233;49.500;7.764;2023-05-14T13:12:31;3.90;;;3.60;;
7432;SDS011;32233;49.500;7.764;2023-05-14T13:14:58;3.63;;;3.20;;
7432;SDS011;32233;49.500;7.764;2023-05-14T13:17:24;4.20;;;3.80;;
7432;SDS011;32233;49.500;7.764;2023-05-14T13:19:51;3.10;;;2.90;;
7432;SDS011;32233;49.500;7.764;2023-05-14T13:22:17;2.83;;;2.63;;
7432;SDS011;32233;49.500;7.764;2023-05-14T13:24:44;2.90;;;2.53;;
7432;SDS011;32233;49.500;7.764;2023-05-14T13:27:11;3.50;;;3.23;;
7432;SDS011;32233;49.500;7.764;2023-05-14T13:29:38;3.43;;;3.20;;
7432;SDS011;32233;49.500;7.764;2023-05-14T13:32:04;2.93;;;2.73;;
7432;SDS011;32233;49.500;7.764;2023-05-14T13:34:31;3.17;;;2.83;;
7432;SDS011;32233;49.500;7.764;2023-05-14T13:36:57;2.53;;;2.33;;
7432;SDS011;32233;49.500;7.764;2023-05-14T13:39:24;4.43;;;3.83;;
7432;SDS011;32233;49.500;7.764;2023-05-14T13:41:55;3.07;;;2.87;;
7432;SDS011;32233;49.500;7.764;2023-05-14T13:44:22;3.23;;;2.93;;
7432;SDS011;32233;49.500;7.764;2023-05-14T13:46:49;2.80;;;2.60;;
7432;SDS011;32233;49.500;7.764;2023-05-14T13:49:16;3.73;;;3.17;;
7432;SDS011;32233;49.500;7.764;2023-05-14T13:51:42;4.10;;;3.30;;
7432;SDS011;32233;49.500;7.764;2023-05-14T13:54:09;5.40;;;3.33;;
7432;SDS011;32233;49.500;7.764;2023-05-14T13:56:36;3.67;;;3.17;;
7432;SDS011;32233;49.500;7.764;2023-05-14T13:59:02;2.80;;;2.60;;
7432;SDS011;32233;49.500;7.764;2023-05-14T14:01:29;3.33;;;3.13;;
7432;SDS011;32233;49.500;7.764;2023-05-14T14:03:57;2.80;;;2.70;;
7432;SDS011;32233;49.500;7.764;2023-05-14T14:06:24;3.50;;;3.20;;
7432;SDS011;32233;49.500;7.764;2023-05-14T14:08:52;3.10;;;2.90;;
7432;SDS011;32233;49.500;7.764;2023-05-14T14:11:19;2.63;;;2.50;;
7432;SDS011;32233;49.500;7.764;2023-05-14T14:13:45;3.07;;;2.87;;
7432;SDS011;32233;49.500;7.764;2023-05-14T14:16:12;2.80;;;2.43;;
7432;SDS011;32233;49.500;7.764;2023-05-14T14:18:39;3.30;;;3.03;;
7432;SDS011;32233;49.500;7.764;2023-05-14T14:21:05;2.87;;;2.67;;
7432;SDS011;32233;49.500;7.764;2023-05-14T14:23:32;2.90;;;2.70;;
7432;SDS011;32233;49.500;7.764;2023-05-14T14:25:58;3.17;;;2.97;;
7432;SDS011;32233;49.500;7.764;2023-05-14T14:28:25;3.43;;;3.20;;
7432;SDS011;32233;49.500;7.764;2023-05-14T14:30:52;3.47;;;2.20;;
7432;SDS011;32233;49.500;7.764;2023-05-14T14:33:18;2.47;;;2.30;;
7432;SDS011;32233;49.500;7.764;2023-05-14T14:35:45;2.70;;;2.50;;
7432;SDS011;32233;49.500;7.764;2023-05-14T14:38:11;2.67;;;2.47;;
7432;SDS011;32233;49.500;7.764;2023-05-14T14:40:38;2.53;;;2.33;;
7432;SDS011;32233;49.500;7.764;2023-05-14T14:43:04;2.40;;;2.30;;
7432;SDS011;32233;49.500;7.764;2023-05-14T14:45:31;3.10;;;2.17;;
7432;SDS011;32233;49.500;7.764;2023-05-14T14:50:56;2.40;;;2.20;;
7432;SDS011;32233;49.500;7.764;2023-05-14T14:53:23;2.30;;;2.20;;
7432;SDS011;32233;49.500;7.764;2023-05-14T14:55:50;2.40;;;2.20;;
7432;SDS011;32233;49.500;7.764;2023-05-14T14:58:18;2.10;;;2.00;;
7432;SDS011;32233;49.500;7.764;2023-05-14T15:00:46;2.47;;;2.27;;
7432;SDS011;32233;49.500;7.764;2023-05-14T15:03:13;1.97;;;1.87;;
7432;SDS011;32233;49.500;7.764;2023-05-14T15:05:40;1.90;;;1.43;;
7432;SDS011;32233;49.500;7.764;2023-05-14T15:08:07;2.10;;;2.00;;
7432;SDS011;32233;49.500;7.764;2023-05-14T15:10:34;1.70;;;1.60;;
7432;SDS011;32233;49.500;7.764;2023-05-14T15:13:04;1.70;;;1.60;;
7432;SDS011;32233;49.500;7.764;2023-05-14T15:15:32;2.27;;;2.17;;
7432;SDS011;32233;49.500;7.764;2023-05-14T15:17:59;1.87;;;1.77;;